createdAt,value
2023-05-10T00:01:07.265Z,61.80
2023-05-10T00:03:35.021Z,61.89
2023-05-10T00:06:02.752Z,61.88
2023-05-10T00:08:30.543Z,62.97
2023-05-10T00:10:58.502Z,62.97
2023-05-10T00:13:26.381Z,62.48
2023-05-10T00:15:54.233Z,65.37
2023-05-10T00:18:22.351Z,64.04
2023-05-10T00:20:50.205Z,63.73
2023-05-10T00:23:18.009Z,63.36
2023-05-10T00:25:45.764Z,64.30
2023-05-10T00:28:13.619Z,63.53
2023-05-10T00:30:41.257Z,63.11
2023-05-10T00:33:09.002Z,65.72
2023-05-10T00:35:36.982Z,64.31
2023-05-10T00:38:04.793Z,64.56
2023-05-10T00:40:32.598Z,63.21
2023-05-10T00:43:04.078Z,63.45
2023-05-10T00:45:34.122Z,64.42
2023-05-10T00:48:05.474Z,66.12
2023-05-10T00:50:33.907Z,66.94
2023-05-10T00:53:02.916Z,65.98
2023-05-10T00:55:31.444Z,65.48
2023-05-10T00:57:59.803Z,65.76
2023-05-10T01:00:27.658Z,66.57
2023-05-10T01:02:55.562Z,65.06
2023-05-10T01:05:23.872Z,65.23
2023-05-10T01:07:51.983Z,66.38
2023-05-10T01:10:19.804Z,66.51
2023-05-10T01:12:48.545Z,66.80
2023-05-10T01:15:19.039Z,66.75
2023-05-10T01:17:49.186Z,66.46
2023-05-10T01:20:17.307Z,66.18
2023-05-10T01:23:07.181Z,67.49
2023-05-10T01:25:56.123Z,67.88
2023-05-10T01:28:29.782Z,66.54
2023-05-10T01:31:32.937Z,66.98
2023-05-10T01:34:08.496Z,72.11
2023-05-10T01:36:49.520Z,70.65
2023-05-10T01:39:32.086Z,69.95
2023-05-10T01:42:11.127Z,67.50
2023-05-10T01:44:54.294Z,70.68
2023-05-10T01:47:47.910Z,71.21
2023-05-10T01:50:29.691Z,71.73
2023-05-10T01:53:00.128Z,70.63
2023-05-10T01:55:33.142Z,70.24
2023-05-10T01:58:11.153Z,70.38
2023-05-10T02:00:45.507Z,70.41
2023-05-10T02:03:15.907Z,71.23
2023-05-10T02:05:47.061Z,69.76
2023-05-10T02:08:16.785Z,70.51
2023-05-10T02:10:45.889Z,72.87
2023-05-10T02:13:15.188Z,73.89
2023-05-10T02:15:44.384Z,72.16
2023-05-10T02:18:14.629Z,72.12
2023-05-10T02:20:44.226Z,70.88
2023-05-10T02:23:12.496Z,70.01
2023-05-10T02:25:42.732Z,68.96
2023-05-10T02:28:13.084Z,70.11
2023-05-10T02:30:41.471Z,72.83
2023-05-10T02:33:09.734Z,71.48
2023-05-10T02:35:40.354Z,72.35
2023-05-10T02:38:12.744Z,70.78
2023-05-10T02:40:42.405Z,69.80
2023-05-10T02:43:13.153Z,71.40
2023-05-10T02:45:41.934Z,75.84
2023-05-10T02:48:11.237Z,72.42
2023-05-10T02:50:44.217Z,74.63
2023-05-10T02:53:20.247Z,73.28
2023-05-10T02:55:52.809Z,70.54
2023-05-10T02:58:20.674Z,74.62
2023-05-10T03:00:48.728Z,75.83
2023-05-10T03:03:16.411Z,73.86
2023-05-10T03:05:44.136Z,74.50
2023-05-10T03:08:12.163Z,74.91
2023-05-10T03:10:55.593Z,75.57
2023-05-10T03:13:36.903Z,76.22
2023-05-10T03:16:16.435Z,75.37
2023-05-10T03:19:11.182Z,73.39
2023-05-10T03:21:42.699Z,72.95
2023-05-10T03:24:13.440Z,78.33
2023-05-10T03:26:47.202Z,74.58
2023-05-10T03:29:18.444Z,77.16
2023-05-10T03:31:46.473Z,73.00
2023-05-10T03:34:15.481Z,70.33
2023-05-10T03:36:43.188Z,69.79
2023-05-10T03:39:11.486Z,69.76
2023-05-10T03:41:39.244Z,71.46
2023-05-10T03:44:06.976Z,70.74
2023-05-10T03:46:34.797Z,73.45
2023-05-10T03:49:04.153Z,72.75
2023-05-10T03:51:32.201Z,73.09
2023-05-10T03:54:00.241Z,73.37
2023-05-10T03:56:28.234Z,71.35
2023-05-10T03:58:56.056Z,73.54
2023-05-10T04:01:23.720Z,75.45
2023-05-10T04:03:51.473Z,72.05
2023-05-10T04:06:19.337Z,72.41
2023-05-10T04:08:47.087Z,72.87
2023-05-10T04:11:15.279Z,72.32
2023-05-10T04:13:44.004Z,71.01
2023-05-10T04:16:11.746Z,72.61
2023-05-10T04:18:40.632Z,71.48
2023-05-10T04:21:14.701Z,71.27
2023-05-10T04:23:42.498Z,71.20
2023-05-10T04:26:10.458Z,70.76
2023-05-10T04:28:38.857Z,68.88
2023-05-10T04:31:08.339Z,68.70
2023-05-10T04:33:37.442Z,68.81
2023-05-10T04:36:05.651Z,68.47
2023-05-10T04:38:33.391Z,68.72
2023-05-10T04:41:11.321Z,68.08
2023-05-10T04:43:39.505Z,67.34
2023-05-10T04:46:10.556Z,66.89
2023-05-10T04:48:38.252Z,66.74
2023-05-10T04:51:07.578Z,66.02
2023-05-10T04:53:35.261Z,66.28
2023-05-10T04:56:03.186Z,65.65
2023-05-10T04:58:31.026Z,65.70
2023-05-10T05:01:05.504Z,64.97
2023-05-10T05:03:33.831Z,64.88
2023-05-10T05:06:01.641Z,64.26
2023-05-10T05:08:29.327Z,64.18
2023-05-10T05:10:56.961Z,63.42
2023-05-10T05:13:24.864Z,63.28
2023-05-10T05:15:54.599Z,62.74
2023-05-10T05:18:22.325Z,61.93
2023-05-10T05:20:50.096Z,60.72
2023-05-10T05:23:17.924Z,61.66
2023-05-10T05:25:45.813Z,61.13
2023-05-10T05:28:13.440Z,60.41
2023-05-10T05:30:41.147Z,60.33
2023-05-10T05:33:08.838Z,59.64
2023-05-10T05:35:36.617Z,58.93
2023-05-10T05:38:04.497Z,58.84
2023-05-10T05:40:32.479Z,58.89
2023-05-10T05:43:00.275Z,57.76
2023-05-10T05:45:27.902Z,57.93
2023-05-10T05:47:55.786Z,57.25
2023-05-10T05:50:23.659Z,56.42
2023-05-10T05:52:52.140Z,55.85
2023-05-10T05:55:20.143Z,56.07
2023-05-10T05:57:47.799Z,54.87
2023-05-10T06:00:16.362Z,53.89
2023-05-10T06:02:44.173Z,53.89
2023-05-10T06:05:12.047Z,54.62
2023-05-10T06:07:42.816Z,53.75
2023-05-10T06:10:11.294Z,53.55
2023-05-10T06:12:38.969Z,53.55
2023-05-10T06:15:07.403Z,52.40
2023-05-10T06:17:35.095Z,51.11
2023-05-10T06:20:02.926Z,51.08
2023-05-10T06:22:30.617Z,50.68
2023-05-10T06:24:58.286Z,50.04
2023-05-10T06:27:25.904Z,51.14
2023-05-10T06:30:02.214Z,49.38
2023-05-10T06:32:37.144Z,48.33
2023-05-10T06:35:05.201Z,47.32
2023-05-10T06:37:32.906Z,47.52
2023-05-10T06:40:00.692Z,46.33
2023-05-10T06:42:28.445Z,45.18
2023-05-10T06:44:56.070Z,45.19
2023-05-10T06:47:24.395Z,44.74
2023-05-10T06:49:52.193Z,44.46
2023-05-10T06:52:19.892Z,43.61
2023-05-10T06:54:47.543Z,44.00
2023-05-10T06:57:27.638Z,42.18
2023-05-10T06:59:59.992Z,42.16
2023-05-10T07:02:27.790Z,41.31
2023-05-10T07:04:55.706Z,42.54
2023-05-10T07:07:23.555Z,42.56
2023-05-10T07:09:52.132Z,41.32
2023-05-10T07:12:20.862Z,41.21
2023-05-10T07:14:48.640Z,41.80
2023-05-10T07:17:16.583Z,39.59
2023-05-10T07:19:44.861Z,39.04
2023-05-10T07:22:12.544Z,39.47
2023-05-10T07:24:40.526Z,38.39
2023-05-10T07:27:08.198Z,38.55
2023-05-10T07:29:37.131Z,38.48
2023-05-10T07:32:04.992Z,36.98
2023-05-10T07:34:32.819Z,36.27
2023-05-10T07:37:00.614Z,36.28
2023-05-10T07:39:28.794Z,35.40
2023-05-10T07:41:56.990Z,36.61
2023-05-10T07:44:24.752Z,35.90
2023-05-10T07:46:53.150Z,35.53
2023-05-10T07:49:20.941Z,34.01
2023-05-10T07:51:48.845Z,33.81
2023-05-10T07:54:18.190Z,33.33
2023-05-10T07:56:48.014Z,32.30
2023-05-10T07:59:17.970Z,32.26
2023-05-10T08:01:46.233Z,31.48
2023-05-10T08:04:14.046Z,31.90
2023-05-10T08:06:41.954Z,32.03
2023-05-10T08:09:10.337Z,31.54
2023-05-10T08:11:38.096Z,32.01
2023-05-10T08:14:05.847Z,30.52
2023-05-10T08:16:33.618Z,31.76
2023-05-10T08:19:01.456Z,31.88
2023-05-10T08:21:29.558Z,30.96
2023-05-10T08:23:57.289Z,31.22
2023-05-10T08:26:25.313Z,30.72
2023-05-10T08:28:53.123Z,30.38
2023-05-10T08:31:20.881Z,30.55
2023-05-10T08:33:48.709Z,30.31
2023-05-10T08:36:20.660Z,31.05
2023-05-10T08:38:54.385Z,31.83
2023-05-10T08:41:24.774Z,30.51
2023-05-10T08:43:54.467Z,30.16
2023-05-10T08:46:23.671Z,30.02
2023-05-10T08:48:52.718Z,30.93
2023-05-10T08:51:24.697Z,30.68
2023-05-10T08:53:52.556Z,30.68
2023-05-10T08:56:21.740Z,31.23
2023-05-10T08:58:50.724Z,29.75
2023-05-10T09:01:20.357Z,30.37
2023-05-10T09:03:49.194Z,30.39
2023-05-10T09:06:17.211Z,30.05
2023-05-10T09:08:46.696Z,30.63
2023-05-10T09:11:15.286Z,30.30
2023-05-10T09:13:45.070Z,30.29
2023-05-10T09:16:21.226Z,30.56
2023-05-10T09:18:50.554Z,29.82
2023-05-10T09:21:19.418Z,29.47
2023-05-10T09:23:48.664Z,29.22
2023-05-10T09:26:17.249Z,28.13
2023-05-10T09:28:56.379Z,27.95
2023-05-10T09:31:25.959Z,28.25
2023-05-10T09:33:54.206Z,27.11
2023-05-10T09:36:21.862Z,27.15
2023-05-10T09:38:52.917Z,26.31
2023-05-10T09:41:22.680Z,27.63
2023-05-10T09:43:50.853Z,26.62
2023-05-10T09:46:18.728Z,26.50
2023-05-10T09:48:50.616Z,25.82
2023-05-10T09:51:25.783Z,25.69
2023-05-10T09:54:10.192Z,26.01
2023-05-10T09:56:41.096Z,24.94
2023-05-10T09:59:13.521Z,25.25
2023-05-10T10:01:42.085Z,24.72
2023-05-10T10:04:10.840Z,25.06
2023-05-10T10:06:42.284Z,25.73
2023-05-10T10:09:10.637Z,24.76
2023-05-10T10:11:39.998Z,24.71
2023-05-10T10:14:07.650Z,23.59
2023-05-10T10:16:35.965Z,24.45
2023-05-10T10:19:03.832Z,24.27
2023-05-10T10:21:32.545Z,24.34
2023-05-10T10:24:00.372Z,24.34
2023-05-10T10:26:28.472Z,24.98
2023-05-10T10:29:40.384Z,24.65
2023-05-10T10:32:27.549Z,22.76
2023-05-10T10:34:57.148Z,23.41
2023-05-10T10:37:35.411Z,23.88
2023-05-10T10:40:33.622Z,24.15
2023-05-10T10:43:31.273Z,24.55
2023-05-10T10:46:18.806Z,23.71
2023-05-10T10:48:53.224Z,23.72
2023-05-10T10:51:21.112Z,23.22
2023-05-10T10:53:49.415Z,24.79
2023-05-10T10:56:24.567Z,23.85
2023-05-10T10:58:54.149Z,24.50
2023-05-10T11:01:22.215Z,23.26
2023-05-10T11:04:18.581Z,21.54
2023-05-10T11:06:46.317Z,23.16
2023-05-10T11:09:14.347Z,22.48
2023-05-10T11:11:59.650Z,24.06
2023-05-10T11:14:27.528Z,23.66
2023-05-10T11:16:55.493Z,22.34
2023-05-10T11:19:28.756Z,23.56
2023-05-10T11:22:05.447Z,23.00
2023-05-10T11:24:34.378Z,24.26
2023-05-10T11:27:02.208Z,23.92
2023-05-10T11:29:30.013Z,24.46
2023-05-10T11:31:59.655Z,23.62
2023-05-10T11:34:34.300Z,23.80
2023-05-10T11:37:02.345Z,23.96
2023-05-10T11:39:32.753Z,23.60
2023-05-10T11:42:01.175Z,24.70
2023-05-10T11:44:32.899Z,23.41
2023-05-10T11:47:02.572Z,23.96
2023-05-10T11:49:31.198Z,24.27
2023-05-10T11:52:08.939Z,24.29
2023-05-10T11:54:36.821Z,24.69
2023-05-10T11:57:05.064Z,24.33
2023-05-10T11:59:32.806Z,24.24
2023-05-10T12:02:00.808Z,24.84
2023-05-10T12:04:30.547Z,24.84
2023-05-10T12:06:58.946Z,24.48
2023-05-10T12:09:39.538Z,24.73
2023-05-10T12:12:11.752Z,24.66
2023-05-10T12:14:39.515Z,25.22
2023-05-10T12:17:07.278Z,25.01
2023-05-10T12:19:42.178Z,25.57
2023-05-10T12:22:09.818Z,25.12
2023-05-10T12:24:39.349Z,25.21
2023-05-10T12:27:09.441Z,25.57
2023-05-10T12:29:37.543Z,25.00
2023-05-10T12:32:05.301Z,25.08
2023-05-10T12:34:35.282Z,25.66
2023-05-10T12:37:04.451Z,26.28
2023-05-10T12:39:42.354Z,25.91
2023-05-10T12:42:11.117Z,25.86
2023-05-10T12:44:39.556Z,26.34
2023-05-10T12:47:07.285Z,26.54
2023-05-10T12:49:35.246Z,25.88
2023-05-10T12:52:03.611Z,26.02
2023-05-10T12:54:31.417Z,25.60
2023-05-10T12:56:59.141Z,25.95
2023-05-10T12:59:26.827Z,26.59
2023-05-10T13:01:54.546Z,26.80
2023-05-10T13:04:23.891Z,26.60
2023-05-10T13:06:51.910Z,26.57
2023-05-10T13:09:19.930Z,27.20
2023-05-10T13:11:49.033Z,27.09
2023-05-10T13:14:16.678Z,26.69
2023-05-10T13:16:44.313Z,26.67
2023-05-10T13:19:12.513Z,26.49
2023-05-10T13:21:43.730Z,26.29
2023-05-10T13:24:14.646Z,27.08
2023-05-10T13:26:42.355Z,26.98
2023-05-10T13:29:10.386Z,27.55
2023-05-10T13:31:38.137Z,27.19
2023-05-10T13:34:07.190Z,26.95
2023-05-10T13:36:34.958Z,27.14
2023-05-10T13:39:04.485Z,27.44
2023-05-10T13:41:32.435Z,27.53
2023-05-10T13:44:00.074Z,28.03
2023-05-10T13:46:27.822Z,27.41
2023-05-10T13:48:55.578Z,27.01
2023-05-10T13:51:23.940Z,27.30
2023-05-10T13:53:51.669Z,27.59
2023-05-10T13:56:19.351Z,27.33
2023-05-10T13:58:47.418Z,27.69
2023-05-10T14:01:15.486Z,27.61
2023-05-10T14:03:43.374Z,28.48
2023-05-10T14:06:11.396Z,28.10
2023-05-10T14:08:39.022Z,27.22
2023-05-10T14:11:06.732Z,27.69
2023-05-10T14:13:34.657Z,27.60
2023-05-10T14:16:02.642Z,27.90
2023-05-10T14:18:30.427Z,27.89
2023-05-10T14:20:58.471Z,28.21
2023-05-10T14:23:26.745Z,27.91
2023-05-10T14:25:54.669Z,28.16
2023-05-10T14:28:23.663Z,28.05
2023-05-10T14:30:51.695Z,27.98
2023-05-10T14:33:19.409Z,28.03
2023-05-10T14:35:48.424Z,28.39
2023-05-10T14:38:16.132Z,28.40
2023-05-10T14:40:44.221Z,28.90
2023-05-10T14:43:11.973Z,28.98
2023-05-10T14:45:39.653Z,28.86
2023-05-10T14:48:07.794Z,28.60
2023-05-10T14:50:37.299Z,29.04
2023-05-10T14:53:05.758Z,28.53
2023-05-10T14:55:33.848Z,28.63
2023-05-10T14:58:03.812Z,28.86
2023-05-10T15:00:32.014Z,29.17
2023-05-10T15:03:00.262Z,28.93
2023-05-10T15:05:28.280Z,28.94
2023-05-10T15:07:56.883Z,29.17
2023-05-10T15:10:24.632Z,29.17
2023-05-10T15:12:52.454Z,29.21
2023-05-10T15:15:20.301Z,29.16
2023-05-10T15:17:49.189Z,28.77
2023-05-10T15:20:17.080Z,28.44
2023-05-10T15:22:44.839Z,27.86
2023-05-10T15:25:12.561Z,27.95
2023-05-10T15:27:40.447Z,28.39
2023-05-10T15:30:09.376Z,28.47
2023-05-10T15:32:38.052Z,28.80
2023-05-10T15:35:06.327Z,28.66
2023-05-10T15:37:34.020Z,28.58
2023-05-10T15:40:04.965Z,28.55
2023-05-10T15:42:33.496Z,28.37
2023-05-10T15:45:01.184Z,28.98
2023-05-10T15:47:30.825Z,28.77
2023-05-10T15:49:58.616Z,29.32
2023-05-10T15:52:26.380Z,29.30
2023-05-10T15:54:54.064Z,29.38
2023-05-10T15:57:21.778Z,29.71
2023-05-10T15:59:49.631Z,29.52
2023-05-10T16:02:19.330Z,29.78
2023-05-10T16:04:47.261Z,29.85
2023-05-10T16:07:14.956Z,30.31
2023-05-10T16:09:42.731Z,30.26
2023-05-10T16:12:10.847Z,30.03
2023-05-10T16:14:38.569Z,30.08
2023-05-10T16:17:06.444Z,30.68
2023-05-10T16:19:34.340Z,30.77
2023-05-10T16:22:02.294Z,30.99
2023-05-10T16:24:30.331Z,30.82
2023-05-10T16:26:58.249Z,30.52
2023-05-10T16:29:26.232Z,30.80
2023-05-10T16:31:54.136Z,30.43
2023-05-10T16:34:24.276Z,30.81
2023-05-10T16:36:52.012Z,31.03
2023-05-10T16:39:19.712Z,31.12
2023-05-10T16:41:47.420Z,31.51
2023-05-10T16:44:15.157Z,31.45
2023-05-10T16:46:43.788Z,31.17
2023-05-10T16:49:12.374Z,31.43
2023-05-10T16:51:40.951Z,31.37
2023-05-10T16:54:08.691Z,31.06
2023-05-10T16:56:36.319Z,31.28
2023-05-10T16:59:03.941Z,31.69
2023-05-10T17:01:31.785Z,32.11
2023-05-10T17:03:59.564Z,32.00
2023-05-10T17:06:27.360Z,31.72
2023-05-10T17:08:55.017Z,31.51
2023-05-10T17:11:22.704Z,31.60
2023-05-10T17:13:52.423Z,31.92
2023-05-10T17:16:21.506Z,32.42
2023-05-10T17:18:49.467Z,32.14
2023-05-10T17:21:17.216Z,32.11
2023-05-10T17:23:44.954Z,32.27
2023-05-10T17:26:12.876Z,32.45
2023-05-10T17:28:40.628Z,32.59
2023-05-10T17:31:08.669Z,32.70
2023-05-10T17:33:36.318Z,32.71
2023-05-10T17:36:04.158Z,32.32
2023-05-10T17:38:32.111Z,32.92
2023-05-10T17:40:59.740Z,32.73
2023-05-10T17:43:27.440Z,33.24
2023-05-10T17:45:55.162Z,33.10
2023-05-10T17:48:23.252Z,33.27
2023-05-10T17:50:51.570Z,33.26
2023-05-10T17:53:19.520Z,33.42
2023-05-10T17:55:49.650Z,33.65
2023-05-10T17:58:17.433Z,33.47
2023-05-10T18:00:45.212Z,33.75
2023-05-10T18:03:13.000Z,33.91
2023-05-10T18:05:41.001Z,33.99
2023-05-10T18:08:08.806Z,34.27
2023-05-10T18:10:39.296Z,34.27
2023-05-10T18:13:09.007Z,34.62
2023-05-10T18:15:37.509Z,34.78
2023-05-10T18:18:05.252Z,34.91
2023-05-10T18:20:33.079Z,35.05
2023-05-10T18:23:00.739Z,35.38
2023-05-10T18:25:28.625Z,35.57
2023-05-10T18:27:56.386Z,35.57
2023-05-10T18:30:24.127Z,35.90
2023-05-10T18:32:52.015Z,36.31
2023-05-10T18:35:20.024Z,36.26
2023-05-10T18:37:48.701Z,36.37
2023-05-10T18:40:17.463Z,36.60
2023-05-10T18:42:46.656Z,36.65
2023-05-10T18:45:14.667Z,37.21
2023-05-10T18:47:43.025Z,37.13
2023-05-10T18:50:11.110Z,37.50
2023-05-10T18:52:38.857Z,38.03
2023-05-10T18:55:07.181Z,37.87
2023-05-10T18:57:41.039Z,38.00
2023-05-10T19:00:10.504Z,38.11
2023-05-10T19:02:39.774Z,38.10
2023-05-10T19:05:07.741Z,38.27
2023-05-10T19:07:35.565Z,38.77
2023-05-10T19:10:03.399Z,38.42
2023-05-10T19:12:31.204Z,38.66
2023-05-10T19:14:58.979Z,39.22
2023-05-10T19:17:26.775Z,39.62
2023-05-10T19:19:57.025Z,39.85
2023-05-10T19:22:35.393Z,39.68
2023-05-10T19:25:13.303Z,40.27
2023-05-10T19:27:41.246Z,41.38
2023-05-10T19:30:09.567Z,40.86
2023-05-10T19:32:37.335Z,40.82
2023-05-10T19:35:05.713Z,41.56
2023-05-10T19:37:33.474Z,41.09
2023-05-10T19:40:01.493Z,41.06
2023-05-10T19:42:29.165Z,43.64
2023-05-10T19:44:59.260Z,42.80
2023-05-10T19:47:26.925Z,42.74
2023-05-10T19:49:54.616Z,42.93
2023-05-10T19:52:22.792Z,42.57
2023-05-10T19:54:50.472Z,44.18
2023-05-10T19:57:18.237Z,43.39
2023-05-10T19:59:45.986Z,43.80
2023-05-10T20:02:13.969Z,43.25
2023-05-10T20:04:41.714Z,43.44
2023-05-10T20:07:09.464Z,42.83
2023-05-10T20:09:37.102Z,42.81
2023-05-10T20:12:04.830Z,43.54
2023-05-10T20:14:32.544Z,43.04
2023-05-10T20:17:00.398Z,44.98
2023-05-10T20:19:28.058Z,43.49
2023-05-10T20:21:58.843Z,43.83
2023-05-10T20:24:26.653Z,43.84
2023-05-10T20:26:54.693Z,44.14
2023-05-10T20:29:22.437Z,44.19
2023-05-10T20:31:50.180Z,44.07
2023-05-10T20:34:18.088Z,43.82
2023-05-10T20:36:45.814Z,43.76
2023-05-10T20:39:14.248Z,44.15
2023-05-10T20:41:42.205Z,43.91
2023-05-10T20:44:09.924Z,44.06
2023-05-10T20:46:37.846Z,43.83
2023-05-10T20:49:05.608Z,43.88
2023-05-10T20:51:33.441Z,44.09
2023-05-10T20:54:04.471Z,43.66
2023-05-10T20:56:32.132Z,43.47
2023-05-10T20:58:59.834Z,43.69
2023-05-10T21:01:27.596Z,44.02
2023-05-10T21:03:55.351Z,44.11
2023-05-10T21:06:23.036Z,43.94
2023-05-10T21:08:50.652Z,43.74
2023-05-10T21:11:18.268Z,44.45
2023-05-10T21:13:45.921Z,44.39
2023-05-10T21:16:13.800Z,44.75
2023-05-10T21:18:41.538Z,44.81
2023-05-10T21:21:09.607Z,44.90
2023-05-10T21:23:37.443Z,44.17
2023-05-10T21:26:05.222Z,45.02
2023-05-10T21:28:32.876Z,44.84
2023-05-10T21:31:00.509Z,45.02
2023-05-10T21:33:28.330Z,45.01
2023-05-10T21:35:56.817Z,45.37
2023-05-10T21:38:24.715Z,45.10
2023-05-10T21:40:52.356Z,45.43
2023-05-10T21:43:20.610Z,45.26
2023-05-10T21:45:48.253Z,45.04
2023-05-10T21:48:15.936Z,45.66
2023-05-10T21:50:43.827Z,45.59
2023-05-10T21:53:11.836Z,45.86
2023-05-10T21:55:39.521Z,45.95
2023-05-10T21:58:07.340Z,45.68
2023-05-10T22:00:35.594Z,45.93
2023-05-10T22:03:03.425Z,45.96
2023-05-10T22:05:31.283Z,46.08
2023-05-10T22:07:59.189Z,46.21
2023-05-10T22:10:26.816Z,45.95
2023-05-10T22:12:54.507Z,46.13
2023-05-10T22:15:22.233Z,46.96
2023-05-10T22:17:50.490Z,46.35
2023-05-10T22:20:18.585Z,47.04
2023-05-10T22:22:46.583Z,46.37
2023-05-10T22:25:14.582Z,47.08
2023-05-10T22:27:42.385Z,47.03
2023-05-10T22:30:10.767Z,47.20
2023-05-10T22:32:38.510Z,47.13
2023-05-10T22:35:07.098Z,46.99
2023-05-10T22:37:34.720Z,47.16
2023-05-10T22:40:02.467Z,48.02
2023-05-10T22:42:30.155Z,47.47
2023-05-10T22:44:58.741Z,47.84
2023-05-10T22:47:26.476Z,48.16
2023-05-10T22:49:55.296Z,47.99
2023-05-10T22:52:22.886Z,47.80
2023-05-10T22:54:50.834Z,47.55
2023-05-10T22:57:18.704Z,47.30
2023-05-10T22:59:48.113Z,48.11
2023-05-10T23:02:16.280Z,47.72
2023-05-10T23:04:44.180Z,48.23
2023-05-10T23:07:12.182Z,48.09
2023-05-10T23:09:39.923Z,47.51
2023-05-10T23:12:07.738Z,48.34
2023-05-10T23:14:35.529Z,47.48
2023-05-10T23:17:03.269Z,48.07
2023-05-10T23:19:31.019Z,48.84
2023-05-10T23:21:59.513Z,48.28
2023-05-10T23:24:27.178Z,47.95
2023-05-10T23:26:54.899Z,48.86
2023-05-10T23:29:23.943Z,47.85
2023-05-10T23:31:51.850Z,48.46
2023-05-10T23:34:19.610Z,48.83
2023-05-10T23:36:47.354Z,50.08
2023-05-10T23:39:15.436Z,49.11
2023-05-10T23:41:43.145Z,50.21
2023-05-10T23:44:10.789Z,50.52
2023-05-10T23:46:38.417Z,49.38
2023-05-10T23:49:06.224Z,50.71
2023-05-10T23:51:34.002Z,50.29
2023-05-10T23:54:02.106Z,50.49
2023-05-10T23:56:29.764Z,50.08
2023-05-10T23:58:57.630Z,49.89
